Betsy Ross — WDI9782 — position and weather

sailwx.info

Track history (hours):
 
Tides and Currents Weather Stations Pressure Air Temp Water Temp Dewpoint Dewpoint Depression Visibility Wind Speed Wind Dir Waves Ship Positions

Betsy Ross

Owner: Port Imperial Ferry Corporation, Weehawken, NJ. More information available from US FCC via Universal Licensing System and Coast Guard Vessel Documentation Center.

Last reported at 2017-Oct-18 22:50 UTC. Time now 2017-Oct-19 07:16 UTC.
Position N 40°30' W 074°04'.

Length 33 m.

Type: Passenger vessel. MMSI: 367752090.

Date/timePositionNaut miles runAvg speedWind from/ knotsBaromVisibWave heightAir tempDewpointWater temp
2017-Oct-18 22:50N 40°30' W 074°04'928.0
2017-Oct-18 22:31N 40°39' W 074°03'4 7.3
2017-Oct-18 22:00N 40°43' W 074°02'1515.3
2017-Oct-18 21:03N 40°28' W 074°04'129.7
2017-Oct-18 21:00N 40°29' W 074°04'1326.3
2017-Oct-18 20:30N 40°42' W 074°00'3 6.9
2017-Oct-18 20:00N 40°46' W 074°00'1 1.4
2017-Oct-18 19:30N 40°46' W 074°01'0 0.0
2017-Oct-18 16:39N 40°46' W 074°01'0 0.0
2017-Oct-18 16:30N 40°46' W 074°01'0 0.0
2017-Oct-18 16:00N 40°46' W 074°01'0 0.0
2017-Oct-18 15:30N 40°46' W 074°01'0 0.0
2017-Oct-18 15:00N 40°46' W 074°01'0 0.0
2017-Oct-18 14:00N 40°46' W 074°01'0 0.0
2017-Oct-18 13:30N 40°46' W 074°01'4 7.2
2017-Oct-18 13:00N 40°43' W 074°02'5 9.5
2017-Oct-18 12:31N 40°38' W 074°03'1013.7
2017-Oct-18 11:47N 40°28' W 074°04'828.2
2017-Oct-18 11:30N 40°36' W 074°03'713.6
2017-Oct-18 11:01N 40°42' W 074°00'1527.4
2017-Oct-18 10:28N 40°28' W 074°04'2 0.1
2017-Oct-17 22:53N 40°29' W 074°04'1026.3
2017-Oct-17 22:31N 40°39' W 074°02'4 7.9
2017-Oct-17 22:01N 40°43' W 074°01'1516.0
2017-Oct-17 21:04N 40°28' W 074°05'229.3
2017-Oct-17 21:00N 40°30' W 074°04'1325.8
2017-Oct-17 20:30N 40°42' W 074°00'3 6.9
2017-Oct-17 20:00N 40°46' W 074°00'1 1.4
2017-Oct-17 19:30N 40°46' W 074°01'0 0.0
2017-Oct-17 19:00N 40°46' W 074°01'0 0.0
2017-Oct-17 18:30N 40°46' W 074°01'0 0.0
2017-Oct-17 18:00N 40°46' W 074°01'0 0.0
2017-Oct-17 17:30N 40°46' W 074°01'0 0.0
2017-Oct-17 17:00N 40°46' W 074°01'0 0.0
2017-Oct-17 16:30N 40°46' W 074°01'0 0.0
2017-Oct-17 16:00N 40°46' W 074°01'0 0.0
2017-Oct-17 15:30N 40°46' W 074°01'0 0.0
2017-Oct-17 15:00N 40°46' W 074°01'0 0.0
2017-Oct-17 14:30N 40°46' W 074°01'0 0.0
2017-Oct-17 14:00N 40°46' W 074°01'0 0.0
2017-Oct-17 13:30N 40°46' W 074°01'4 7.1
2017-Oct-17 13:01N 40°43' W 074°02'510.5
2017-Oct-17 12:30N 40°38' W 074°03'1013.0
2017-Oct-17 11:46N 40°28' W 074°05'829.5
2017-Oct-17 11:30N 40°36' W 074°03'713.5
2017-Oct-17 11:01N 40°42' W 074°00'11 0.9
2017-Oct-16 22:45N 40°31' W 074°04'728.3
2017-Oct-16 22:30N 40°38' W 074°03'5 9.4
2017-Oct-16 22:01N 40°43' W 074°02'1313.0
2017-Oct-16 21:00N 40°30' W 074°04'1326.1
2017-Oct-16 20:31N 40°42' W 074°00'3 6.8
2017-Oct-16 20:00N 40°46' W 074°00'1 1.5
2017-Oct-16 19:30N 40°46' W 074°01'0 0.0
2017-Oct-16 19:00N 40°46' W 074°01'0 0.0
2017-Oct-16 18:30N 40°46' W 074°01'0 0.0
2017-Oct-16 18:00N 40°46' W 074°01'1 1.5
2017-Oct-16 17:30N 40°46' W 074°00'0 0.0
2017-Oct-16 17:00N 40°46' W 074°00'0 0.0
2017-Oct-16 16:30N 40°46' W 074°00'0 0.0
2017-Oct-16 16:00N 40°46' W 074°00'0 0.0
2017-Oct-16 15:30N 40°46' W 074°00'0 0.0
2017-Oct-16 15:00N 40°46' W 074°00'9 8.7
2017-Oct-16 14:00N 40°37' W 074°03'812.3
2017-Oct-16 13:22N 40°29' W 074°04'1130.7
2017-Oct-16 13:01N 40°40' W 074°03'3 5.1
2017-Oct-16 12:30N 40°43' W 074°02'713.1
2017-Oct-16 12:00N 40°36' W 074°03'1019.2
2017-Oct-16 11:28N 40°26' W 074°05'1429.8
2017-Oct-16 11:01N 40°40' W 074°03'1 2.0
2017-Oct-16 10:30N 40°39' W 074°02'  
2017-Oct-13 22:42N 40°32' W 074°03'629.6
2017-Oct-13 22:30N 40°38' W 074°03'510.7
2017-Oct-13 22:00N 40°43' W 074°02'1312.6
2017-Oct-13 20:59N 40°30' W 074°03'1225.5
2017-Oct-13 20:30N 40°42' W 074°00'3 6.8
2017-Oct-13 20:00N 40°46' W 074°00'1 1.5
2017-Oct-13 19:31N 40°46' W 074°01'0 0.0
2017-Oct-13 19:00N 40°46' W 074°01'0 0.0
2017-Oct-13 18:30N 40°46' W 074°01'0 0.0
2017-Oct-13 18:00N 40°46' W 074°01'0 0.0
2017-Oct-13 17:30N 40°46' W 074°01'0 0.0
2017-Oct-13 17:00N 40°46' W 074°01'0 0.0
2017-Oct-13 16:30N 40°46' W 074°01'0 0.0
2017-Oct-13 16:00N 40°46' W 074°01'0 0.0
2017-Oct-13 15:30N 40°46' W 074°01'0 0.0
2017-Oct-13 15:00N 40°46' W 074°01'0 0.0
2017-Oct-13 14:30N 40°46' W 074°01'0 0.0
2017-Oct-13 14:00N 40°46' W 074°01'0 0.0
2017-Oct-13 13:30N 40°46' W 074°01'2 3.3
2017-Oct-13 13:00N 40°45' W 074°01'714.3
2017-Oct-13 12:30N 40°37' W 074°03'8 9.8
2017-Oct-13 11:42N 40°30' W 074°04'631.2
2017-Oct-13 11:30N 40°36' W 074°03'612.4
2017-Oct-13 11:00N 40°42' W 074°00'10 0.8
2017-Oct-12 22:44N 40°32' W 074°03'730.0
2017-Oct-12 22:30N 40°38' W 074°02'4 8.9
2017-Oct-12 22:00N 40°43' W 074°02'1312.2
2017-Oct-12 20:58N 40°30' W 074°03'1225.7
2017-Oct-12 20:30N 40°42' W 074°00'3 7.0
2017-Oct-12 20:00N 40°46' W 074°00'1 1.5
2017-Oct-12 19:30N 40°46' W 074°01'0 0.0
2017-Oct-12 16:32N 40°46' W 074°01'0 0.0
2017-Oct-12 16:30N 40°46' W 074°01'0 0.0
2017-Oct-12 16:00N 40°46' W 074°01'0 0.0
2017-Oct-12 15:30N 40°46' W 074°01'0 0.0
2017-Oct-12 15:00N 40°46' W 074°01'0 0.0
2017-Oct-12 14:30N 40°46' W 074°01'0 0.0
2017-Oct-12 14:00N 40°46' W 074°01'0 0.0
2017-Oct-12 13:30N 40°46' W 074°01'3 6.6
2017-Oct-12 13:00N 40°43' W 074°01'713.3
2017-Oct-12 12:30N 40°36' W 074°03'810.0
2017-Oct-12 11:45N 40°29' W 074°04'730.0
2017-Oct-12 11:30N 40°36' W 074°03'611.2
2017-Oct-12 11:00N 40°42' W 074°01'10 0.8
2017-Oct-11 22:46N 40°32' W 074°03'729.4
2017-Oct-11 22:30N 40°39' W 074°02'4 7.8
2017-Oct-11 22:00N 40°43' W 074°01'1324.7
2017-Oct-11 21:28N 40°30' W 074°04'1 1.7
2017-Oct-11 21:00N 40°30' W 074°03'1325.5
2017-Oct-11 20:30N 40°42' W 074°00'3 7.0
2017-Oct-11 20:00N 40°46' W 074°00'1 1.4
2017-Oct-11 19:30N 40°46' W 074°01'0 0.0
2017-Oct-11 19:00N 40°46' W 074°01'0 0.0
2017-Oct-11 18:30N 40°46' W 074°01'0 0.0
2017-Oct-11 18:00N 40°46' W 074°01'0 0.0
2017-Oct-11 17:30N 40°46' W 074°01'0 0.0
2017-Oct-11 17:00N 40°46' W 074°01'20 1.1
2017-Oct-10 22:58N 40°26' W 074°05'1327.9
2017-Oct-10 22:31N 40°39' W 074°02'4 8.5
2017-Oct-10 22:01N 40°43' W 074°01'1210.7
2017-Oct-10 20:55N 40°31' W 074°03'1127.5
2017-Oct-10 20:30N 40°42' W 074°00'3 6.9
2017-Oct-10 20:01N 40°46' W 074°00'0 0.1
2017-Oct-10 19:30N 40°46' W 074°00'0 0.0
2017-Oct-10 19:00N 40°46' W 074°00'0 0.0
2017-Oct-10 18:30N 40°46' W 074°00'0 0.0
2017-Oct-10 18:00N 40°46' W 074°00'0 0.8
2017-Oct-10 17:30N 40°46' W 074°00'1 1.2
2017-Oct-10 17:00N 40°47' W 074°01'0 0.0
2017-Oct-10 16:30N 40°47' W 074°01'0 0.0
2017-Oct-10 16:00N 40°47' W 074°01'0 0.6
2017-Oct-10 15:30N 40°46' W 074°01'0 0.0
2017-Oct-10 15:00N 40°46' W 074°01'0 0.0
2017-Oct-10 14:00N 40°46' W 074°01'0 0.0
2017-Oct-10 13:30N 40°46' W 074°01'3 6.9
2017-Oct-10 13:00N 40°43' W 074°02'611.4
2017-Oct-10 12:30N 40°37' W 074°03'6 6.8
2017-Oct-10 11:39N 40°31' W 074°03'429.6
2017-Oct-10 11:30N 40°35' W 074°03'713.7
2017-Oct-10 11:01N 40°42' W 074°00'10 0.8
2017-Oct-09 22:44N 40°32' W 074°03'729.8
2017-Oct-09 22:31N 40°39' W 074°03'5 9.2
2017-Oct-09 22:00N 40°43' W 074°01'1211.3
2017-Oct-09 20:56N 40°31' W 074°03'1127.3
2017-Oct-09 20:30N 40°42' W 074°00'3 6.9
2017-Oct-09 20:00N 40°46' W 074°00'0 0.1
2017-Oct-09 19:30N 40°46' W 074°00'0 0.0
2017-Oct-09 19:00N 40°46' W 074°00'1 1.5
2017-Oct-09 18:30N 40°46' W 074°01'0 0.1
2017-Oct-09 18:00N 40°46' W 074°01'0 0.0
2017-Oct-09 17:30N 40°46' W 074°01'0 0.0
2017-Oct-09 17:00N 40°46' W 074°01'0 0.0
2017-Oct-09 16:30N 40°46' W 074°01'0 0.0
2017-Oct-09 16:00N 40°46' W 074°01'0 0.0
2017-Oct-09 15:30N 40°46' W 074°01'0 0.0
2017-Oct-09 15:00N 40°46' W 074°01'0 0.0
2017-Oct-09 14:30N 40°46' W 074°01'0 0.5
2017-Oct-09 14:00N 40°46' W 074°01'0 0.3
2017-Oct-09 13:30N 40°46' W 074°01'3 7.0
2017-Oct-09 13:00N 40°43' W 074°02'4 8.8
2017-Oct-09 12:30N 40°39' W 074°03'1013.3
2017-Oct-09 11:44N 40°28' W 074°05'729.3
2017-Oct-09 11:31N 40°35' W 074°03'815.2
2017-Oct-09 11:00N 40°42' W 074°00'  
Track history (hours):
 
Tides and Currents Weather Stations Pressure Air Temp Water Temp Dewpoint Dewpoint Depression Visibility Wind Speed Wind Dir Waves Ship Positions

Betsy Ross

Owner: Port Imperial Ferry Corporation, Weehawken, NJ. More information available from US FCC via Universal Licensing System and Coast Guard Vessel Documentation Center.

Last reported at 2017-Oct-18 22:50 UTC. Time now 2017-Oct-19 07:16 UTC.
Position N 40°30' W 074°04'.

Length 33 m.

Type: Passenger vessel. MMSI: 367752090.

Date/timePositionNaut miles runAvg speedWind from/ knotsBaromVisibWave heightAir tempDewpointWater temp
2017-Oct-18 22:50N 40°30' W 074°04'928.0
2017-Oct-18 22:31N 40°39' W 074°03'4 7.3
2017-Oct-18 22:00N 40°43' W 074°02'1515.3
2017-Oct-18 21:03N 40°28' W 074°04'129.7
2017-Oct-18 21:00N 40°29' W 074°04'1326.3
2017-Oct-18 20:30N 40°42' W 074°00'3 6.9
2017-Oct-18 20:00N 40°46' W 074°00'1 1.4
2017-Oct-18 19:30N 40°46' W 074°01'0 0.0
2017-Oct-18 16:39N 40°46' W 074°01'0 0.0
2017-Oct-18 16:30N 40°46' W 074°01'0 0.0
2017-Oct-18 16:00N 40°46' W 074°01'0 0.0
2017-Oct-18 15:30N 40°46' W 074°01'0 0.0
2017-Oct-18 15:00N 40°46' W 074°01'0 0.0
2017-Oct-18 14:00N 40°46' W 074°01'0 0.0
2017-Oct-18 13:30N 40°46' W 074°01'4 7.2
2017-Oct-18 13:00N 40°43' W 074°02'5 9.5
2017-Oct-18 12:31N 40°38' W 074°03'1013.7
2017-Oct-18 11:47N 40°28' W 074°04'828.2
2017-Oct-18 11:30N 40°36' W 074°03'713.6
2017-Oct-18 11:01N 40°42' W 074°00'1527.4
2017-Oct-18 10:28N 40°28' W 074°04'2 0.1
2017-Oct-17 22:53N 40°29' W 074°04'1026.3
2017-Oct-17 22:31N 40°39' W 074°02'4 7.9
2017-Oct-17 22:01N 40°43' W 074°01'1516.0
2017-Oct-17 21:04N 40°28' W 074°05'229.3
2017-Oct-17 21:00N 40°30' W 074°04'1325.8
2017-Oct-17 20:30N 40°42' W 074°00'3 6.9
2017-Oct-17 20:00N 40°46' W 074°00'1 1.4
2017-Oct-17 19:30N 40°46' W 074°01'0 0.0
2017-Oct-17 19:00N 40°46' W 074°01'0 0.0
2017-Oct-17 18:30N 40°46' W 074°01'0 0.0
2017-Oct-17 18:00N 40°46' W 074°01'0 0.0
2017-Oct-17 17:30N 40°46' W 074°01'0 0.0
2017-Oct-17 17:00N 40°46' W 074°01'0 0.0
2017-Oct-17 16:30N 40°46' W 074°01'0 0.0
2017-Oct-17 16:00N 40°46' W 074°01'0 0.0
2017-Oct-17 15:30N 40°46' W 074°01'0 0.0
2017-Oct-17 15:00N 40°46' W 074°01'0 0.0
2017-Oct-17 14:30N 40°46' W 074°01'0 0.0
2017-Oct-17 14:00N 40°46' W 074°01'0 0.0
2017-Oct-17 13:30N 40°46' W 074°01'4 7.1
2017-Oct-17 13:01N 40°43' W 074°02'510.5
2017-Oct-17 12:30N 40°38' W 074°03'1013.0
2017-Oct-17 11:46N 40°28' W 074°05'829.5
2017-Oct-17 11:30N 40°36' W 074°03'713.5
2017-Oct-17 11:01N 40°42' W 074°00'11 0.9
2017-Oct-16 22:45N 40°31' W 074°04'728.3
2017-Oct-16 22:30N 40°38' W 074°03'5 9.4
2017-Oct-16 22:01N 40°43' W 074°02'1313.0
2017-Oct-16 21:00N 40°30' W 074°04'1326.1
2017-Oct-16 20:31N 40°42' W 074°00'3 6.8
2017-Oct-16 20:00N 40°46' W 074°00'1 1.5
2017-Oct-16 19:30N 40°46' W 074°01'0 0.0
2017-Oct-16 19:00N 40°46' W 074°01'0 0.0
2017-Oct-16 18:30N 40°46' W 074°01'0 0.0
2017-Oct-16 18:00N 40°46' W 074°01'1 1.5
2017-Oct-16 17:30N 40°46' W 074°00'0 0.0
2017-Oct-16 17:00N 40°46' W 074°00'0 0.0
2017-Oct-16 16:30N 40°46' W 074°00'0 0.0
2017-Oct-16 16:00N 40°46' W 074°00'0 0.0
2017-Oct-16 15:30N 40°46' W 074°00'0 0.0
2017-Oct-16 15:00N 40°46' W 074°00'9 8.7
2017-Oct-16 14:00N 40°37' W 074°03'812.3
2017-Oct-16 13:22N 40°29' W 074°04'1130.7
2017-Oct-16 13:01N 40°40' W 074°03'3 5.1
2017-Oct-16 12:30N 40°43' W 074°02'713.1
2017-Oct-16 12:00N 40°36' W 074°03'1019.2
2017-Oct-16 11:28N 40°26' W 074°05'1429.8
2017-Oct-16 11:01N 40°40' W 074°03'1 2.0
2017-Oct-16 10:30N 40°39' W 074°02'  
2017-Oct-13 22:42N 40°32' W 074°03'629.6
2017-Oct-13 22:30N 40°38' W 074°03'510.7
2017-Oct-13 22:00N 40°43' W 074°02'1312.6
2017-Oct-13 20:59N 40°30' W 074°03'1225.5
2017-Oct-13 20:30N 40°42' W 074°00'3 6.8
2017-Oct-13 20:00N 40°46' W 074°00'1 1.5
2017-Oct-13 19:31N 40°46' W 074°01'0 0.0
2017-Oct-13 19:00N 40°46' W 074°01'0 0.0
2017-Oct-13 18:30N 40°46' W 074°01'0 0.0
2017-Oct-13 18:00N 40°46' W 074°01'0 0.0
2017-Oct-13 17:30N 40°46' W 074°01'0 0.0
2017-Oct-13 17:00N 40°46' W 074°01'0 0.0
2017-Oct-13 16:30N 40°46' W 074°01'0 0.0
2017-Oct-13 16:00N 40°46' W 074°01'0 0.0
2017-Oct-13 15:30N 40°46' W 074°01'0 0.0
2017-Oct-13 15:00N 40°46' W 074°01'0 0.0
2017-Oct-13 14:30N 40°46' W 074°01'0 0.0
2017-Oct-13 14:00N 40°46' W 074°01'0 0.0
2017-Oct-13 13:30N 40°46' W 074°01'2 3.3
2017-Oct-13 13:00N 40°45' W 074°01'714.3
2017-Oct-13 12:30N 40°37' W 074°03'8 9.8
2017-Oct-13 11:42N 40°30' W 074°04'631.2
2017-Oct-13 11:30N 40°36' W 074°03'612.4
2017-Oct-13 11:00N 40°42' W 074°00'10 0.8
2017-Oct-12 22:44N 40°32' W 074°03'730.0
2017-Oct-12 22:30N 40°38' W 074°02'4 8.9
2017-Oct-12 22:00N 40°43' W 074°02'1312.2
2017-Oct-12 20:58N 40°30' W 074°03'1225.7
2017-Oct-12 20:30N 40°42' W 074°00'3 7.0
2017-Oct-12 20:00N 40°46' W 074°00'1 1.5
2017-Oct-12 19:30N 40°46' W 074°01'0 0.0
2017-Oct-12 16:32N 40°46' W 074°01'0 0.0
2017-Oct-12 16:30N 40°46' W 074°01'0 0.0
2017-Oct-12 16:00N 40°46' W 074°01'0 0.0
2017-Oct-12 15:30N 40°46' W 074°01'0 0.0
2017-Oct-12 15:00N 40°46' W 074°01'0 0.0
2017-Oct-12 14:30N 40°46' W 074°01'0 0.0
2017-Oct-12 14:00N 40°46' W 074°01'0 0.0
2017-Oct-12 13:30N 40°46' W 074°01'3 6.6
2017-Oct-12 13:00N 40°43' W 074°01'713.3
2017-Oct-12 12:30N 40°36' W 074°03'810.0
2017-Oct-12 11:45N 40°29' W 074°04'730.0
2017-Oct-12 11:30N 40°36' W 074°03'611.2
2017-Oct-12 11:00N 40°42' W 074°01'10 0.8
2017-Oct-11 22:46N 40°32' W 074°03'729.4
2017-Oct-11 22:30N 40°39' W 074°02'4 7.8
2017-Oct-11 22:00N 40°43' W 074°01'1324.7
2017-Oct-11 21:28N 40°30' W 074°04'1 1.7
2017-Oct-11 21:00N 40°30' W 074°03'1325.5
2017-Oct-11 20:30N 40°42' W 074°00'3 7.0
2017-Oct-11 20:00N 40°46' W 074°00'1 1.4
2017-Oct-11 19:30N 40°46' W 074°01'0 0.0
2017-Oct-11 19:00N 40°46' W 074°01'0 0.0
2017-Oct-11 18:30N 40°46' W 074°01'0 0.0
2017-Oct-11 18:00N 40°46' W 074°01'0 0.0
2017-Oct-11 17:30N 40°46' W 074°01'0 0.0
2017-Oct-11 17:00N 40°46' W 074°01'20 1.1
2017-Oct-10 22:58N 40°26' W 074°05'1327.9
2017-Oct-10 22:31N 40°39' W 074°02'4 8.5
2017-Oct-10 22:01N 40°43' W 074°01'1210.7
2017-Oct-10 20:55N 40°31' W 074°03'1127.5
2017-Oct-10 20:30N 40°42' W 074°00'3 6.9
2017-Oct-10 20:01N 40°46' W 074°00'0 0.1
2017-Oct-10 19:30N 40°46' W 074°00'0 0.0
2017-Oct-10 19:00N 40°46' W 074°00'0 0.0
2017-Oct-10 18:30N 40°46' W 074°00'0 0.0
2017-Oct-10 18:00N 40°46' W 074°00'0 0.8
2017-Oct-10 17:30N 40°46' W 074°00'1 1.2
2017-Oct-10 17:00N 40°47' W 074°01'0 0.0
2017-Oct-10 16:30N 40°47' W 074°01'0 0.0
2017-Oct-10 16:00N 40°47' W 074°01'0 0.6
2017-Oct-10 15:30N 40°46' W 074°01'0 0.0
2017-Oct-10 15:00N 40°46' W 074°01'0 0.0
2017-Oct-10 14:00N 40°46' W 074°01'0 0.0
2017-Oct-10 13:30N 40°46' W 074°01'3 6.9
2017-Oct-10 13:00N 40°43' W 074°02'611.4
2017-Oct-10 12:30N 40°37' W 074°03'6 6.8
2017-Oct-10 11:39N 40°31' W 074°03'429.6
2017-Oct-10 11:30N 40°35' W 074°03'713.7
2017-Oct-10 11:01N 40°42' W 074°00'10 0.8
2017-Oct-09 22:44N 40°32' W 074°03'729.8
2017-Oct-09 22:31N 40°39' W 074°03'5 9.2
2017-Oct-09 22:00N 40°43' W 074°01'1211.3
2017-Oct-09 20:56N 40°31' W 074°03'1127.3
2017-Oct-09 20:30N 40°42' W 074°00'3 6.9
2017-Oct-09 20:00N 40°46' W 074°00'0 0.1
2017-Oct-09 19:30N 40°46' W 074°00'0 0.0
2017-Oct-09 19:00N 40°46' W 074°00'1 1.5
2017-Oct-09 18:30N 40°46' W 074°01'0 0.1
2017-Oct-09 18:00N 40°46' W 074°01'0 0.0
2017-Oct-09 17:30N 40°46' W 074°01'0 0.0
2017-Oct-09 17:00N 40°46' W 074°01'0 0.0
2017-Oct-09 16:30N 40°46' W 074°01'0 0.0
2017-Oct-09 16:00N 40°46' W 074°01'0 0.0
2017-Oct-09 15:30N 40°46' W 074°01'0 0.0
2017-Oct-09 15:00N 40°46' W 074°01'0 0.0
2017-Oct-09 14:30N 40°46' W 074°01'0 0.5
2017-Oct-09 14:00N 40°46' W 074°01'0 0.3
2017-Oct-09 13:30N 40°46' W 074°01'3 7.0
2017-Oct-09 13:00N 40°43' W 074°02'4 8.8
2017-Oct-09 12:30N 40°39' W 074°03'1013.3
2017-Oct-09 11:44N 40°28' W 074°05'729.3
2017-Oct-09 11:31N 40°35' W 074°03'815.2
2017-Oct-09 11:00N 40°42' W 074°00'  

Dump ship's entire track history